KSLN/SLN METAR and TAF weather

Enter ICAO airport designator
Station Type Date Time Source
KSLN METAR 2019/10/14 04:53 UTC NOAA

KSLN 140453Z AUTO 00000KT 10SM CLR 07/01 A3000 RMK AO2 SLP160 T00720011


Station Type Date Time Source
KSLN Decoded METAR 2019/10/14 04:53 UTC NOAA

SALINA MUNICIPAL AIRPORT, KS, United States (KSLN) 38-47N 97-39W 385M
Oct 14, 2019 - 12:53 AM EDT / 2019.10.14 0453 UTC
Wind: Calm:0
Visibility: 10 mile(s):0
Sky conditions: clear
Temperature: 45.0 F (7.2 C)
Dew Point: 34.0 F (1.1 C)
Relative Humidity: 65%
Pressure (altimeter): 30 in. Hg (1015 hPa)
ob: KSLN 140453Z AUTO 00000KT 10SM CLR 07/01 A3000 RMK AO2 SLP160 T00720011
cycle: 5

Station Type Date Time Source
KSLN TAF 2019/10/14 06:22 UTC NOAA

TAF KSLN 140520Z 1406/1506 00000KT P6SM SKC
FM141400 15009KT P6SM SKC
FM141700 16017KT P6SM SKC
FM142000 17022G26KT P6SM SKC

Example: see airport list